sensor_id;sensor_type;location;lat;lon;timestamp;temperature;humidity
8979;DHT22;4524;51.364;5.448;2023-07-13T00:01:20;16.90;93.20
8979;DHT22;4524;51.364;5.448;2023-07-13T00:03:50;16.90;93.30
8979;DHT22;4524;51.364;5.448;2023-07-13T00:06:19;16.90;93.40
8979;DHT22;4524;51.364;5.448;2023-07-13T00:08:48;16.90;93.50
8979;DHT22;4524;51.364;5.448;2023-07-13T00:11:18;16.90;93.50
8979;DHT22;4524;51.364;5.448;2023-07-13T00:14:05;16.90;93.50
8979;DHT22;4524;51.364;5.448;2023-07-13T00:16:34;16.90;93.70
8979;DHT22;4524;51.364;5.448;2023-07-13T00:19:03;16.80;93.70
8979;DHT22;4524;51.364;5.448;2023-07-13T00:21:31;16.80;93.90
8979;DHT22;4524;51.364;5.448;2023-07-13T00:24:00;16.80;94.00
8979;DHT22;4524;51.364;5.448;2023-07-13T00:26:29;16.80;94.10
8979;DHT22;4524;51.364;5.448;2023-07-13T00:28:59;16.80;94.20
8979;DHT22;4524;51.364;5.448;2023-07-13T00:31:30;16.70;94.40
8979;DHT22;4524;51.364;5.448;2023-07-13T00:33:58;16.70;94.40
8979;DHT22;4524;51.364;5.448;2023-07-13T00:36:27;16.70;94.70
8979;DHT22;4524;51.364;5.448;2023-07-13T00:38:56;16.70;94.70
8979;DHT22;4524;51.364;5.448;2023-07-13T00:41:24;16.70;94.70
8979;DHT22;4524;51.364;5.448;2023-07-13T00:43:54;16.70;94.90
8979;DHT22;4524;51.364;5.448;2023-07-13T00:46:25;16.70;94.90
8979;DHT22;4524;51.364;5.448;2023-07-13T00:48:56;16.70;95.00
8979;DHT22;4524;51.364;5.448;2023-07-13T00:51:32;16.70;95.10
8979;DHT22;4524;51.364;5.448;2023-07-13T00:54:05;16.60;95.10
8979;DHT22;4524;51.364;5.448;2023-07-13T00:56:34;16.60;95.20
8979;DHT22;4524;51.364;5.448;2023-07-13T00:59:06;16.60;95.30
8979;DHT22;4524;51.364;5.448;2023-07-13T01:01:36;16.50;95.50
8979;DHT22;4524;51.364;5.448;2023-07-13T01:04:06;16.50;95.50
8979;DHT22;4524;51.364;5.448;2023-07-13T01:06:36;16.60;95.60
8979;DHT22;4524;51.364;5.448;2023-07-13T01:09:07;16.50;95.60
8979;DHT22;4524;51.364;5.448;2023-07-13T01:11:38;16.50;95.70
8979;DHT22;4524;51.364;5.448;2023-07-13T01:14:08;16.40;95.90
8979;DHT22;4524;51.364;5.448;2023-07-13T01:16:38;16.40;96.00
8979;DHT22;4524;51.364;5.448;2023-07-13T01:19:21;16.40;96.10
8979;DHT22;4524;51.364;5.448;2023-07-13T01:21:54;16.40;96.30
8979;DHT22;4524;51.364;5.448;2023-07-13T01:24:42;16.30;96.40
8979;DHT22;4524;51.364;5.448;2023-07-13T01:27:12;16.30;96.50
8979;DHT22;4524;51.364;5.448;2023-07-13T01:29:43;16.30;96.50
8979;DHT22;4524;51.364;5.448;2023-07-13T01:32:15;16.30;96.50
8979;DHT22;4524;51.364;5.448;2023-07-13T01:34:50;16.30;96.70
8979;DHT22;4524;51.364;5.448;2023-07-13T01:37:23;16.30;96.80
8979;DHT22;4524;51.364;5.448;2023-07-13T01:39:53;16.20;96.80
8979;DHT22;4524;51.364;5.448;2023-07-13T01:42:21;16.30;96.90
8979;DHT22;4524;51.364;5.448;2023-07-13T01:44:50;16.20;97.10
8979;DHT22;4524;51.364;5.448;2023-07-13T01:47:18;16.20;97.20
8979;DHT22;4524;51.364;5.448;2023-07-13T01:49:47;16.20;97.20
8979;DHT22;4524;51.364;5.448;2023-07-13T01:52:15;16.10;97.40
8979;DHT22;4524;51.364;5.448;2023-07-13T01:54:45;16.20;97.50
8979;DHT22;4524;51.364;5.448;2023-07-13T01:57:13;16.10;97.70
8979;DHT22;4524;51.364;5.448;2023-07-13T01:59:41;16.10;97.70
8979;DHT22;4524;51.364;5.448;2023-07-13T02:02:10;16.10;97.80
8979;DHT22;4524;51.364;5.448;2023-07-13T02:04:57;16.00;98.00
8979;DHT22;4524;51.364;5.448;2023-07-13T02:07:26;16.00;98.10
8979;DHT22;4524;51.364;5.448;2023-07-13T02:09:55;16.00;98.20
8979;DHT22;4524;51.364;5.448;2023-07-13T02:12:24;16.00;98.30
8979;DHT22;4524;51.364;5.448;2023-07-13T02:14:52;16.00;98.60
8979;DHT22;4524;51.364;5.448;2023-07-13T02:17:21;15.90;98.60
8979;DHT22;4524;51.364;5.448;2023-07-13T02:19:50;15.90;98.60
8979;DHT22;4524;51.364;5.448;2023-07-13T02:22:18;15.90;98.80
8979;DHT22;4524;51.364;5.448;2023-07-13T02:24:47;15.90;99.00
8979;DHT22;4524;51.364;5.448;2023-07-13T02:27:19;15.90;99.00
8979;DHT22;4524;51.364;5.448;2023-07-13T02:29:48;15.90;99.10
8979;DHT22;4524;51.364;5.448;2023-07-13T02:32:20;15.90;99.10
8979;DHT22;4524;51.364;5.448;2023-07-13T02:34:49;15.90;99.90
8979;DHT22;4524;51.364;5.448;2023-07-13T02:37:18;15.90;99.30
8979;DHT22;4524;51.364;5.448;2023-07-13T02:39:46;15.80;99.40
8979;DHT22;4524;51.364;5.448;2023-07-13T02:42:15;15.80;99.60
8979;DHT22;4524;51.364;5.448;2023-07-13T02:44:45;15.80;99.60
8979;DHT22;4524;51.364;5.448;2023-07-13T02:47:13;15.80;99.70
8979;DHT22;4524;51.364;5.448;2023-07-13T02:49:42;15.80;99.80
8979;DHT22;4524;51.364;5.448;2023-07-13T02:52:11;15.80;99.80
8979;DHT22;4524;51.364;5.448;2023-07-13T02:54:39;15.70;99.90
8979;DHT22;4524;51.364;5.448;2023-07-13T02:57:07;15.70;99.90
8979;DHT22;4524;51.364;5.448;2023-07-13T02:59:35;15.70;99.90
8979;DHT22;4524;51.364;5.448;2023-07-13T03:02:05;15.70;99.90
8979;DHT22;4524;51.364;5.448;2023-07-13T03:04:35;15.70;99.90
8979;DHT22;4524;51.364;5.448;2023-07-13T03:07:04;15.70;99.90
8979;DHT22;4524;51.364;5.448;2023-07-13T03:09:36;15.70;99.90
8979;DHT22;4524;51.364;5.448;2023-07-13T03:12:07;15.60;99.90
8979;DHT22;4524;51.364;5.448;2023-07-13T03:14:36;15.60;99.90
8979;DHT22;4524;51.364;5.448;2023-07-13T03:17:07;15.60;99.90
8979;DHT22;4524;51.364;5.448;2023-07-13T03:19:38;15.60;99.90
8979;DHT22;4524;51.364;5.448;2023-07-13T03:22:07;15.50;99.90
8979;DHT22;4524;51.364;5.448;2023-07-13T03:24:37;15.50;99.90
8979;DHT22;4524;51.364;5.448;2023-07-13T03:27:07;15.50;99.90
8979;DHT22;4524;51.364;5.448;2023-07-13T03:29:38;15.40;99.90
8979;DHT22;4524;51.364;5.448;2023-07-13T03:32:08;15.40;99.90
8979;DHT22;4524;51.364;5.448;2023-07-13T03:34:37;15.40;99.90
8979;DHT22;4524;51.364;5.448;2023-07-13T03:37:05;15.40;99.90
8979;DHT22;4524;51.364;5.448;2023-07-13T03:39:36;15.40;99.90
8979;DHT22;4524;51.364;5.448;2023-07-13T03:42:05;15.30;99.90
8979;DHT22;4524;51.364;5.448;2023-07-13T03:44:34;15.40;99.90
8979;DHT22;4524;51.364;5.448;2023-07-13T03:47:04;15.40;99.90
8979;DHT22;4524;51.364;5.448;2023-07-13T03:49:34;15.40;99.90
8979;DHT22;4524;51.364;5.448;2023-07-13T03:52:03;15.90;99.90
8979;DHT22;4524;51.364;5.448;2023-07-13T03:54:32;16.40;99.90
8979;DHT22;4524;51.364;5.448;2023-07-13T03:57:01;16.60;99.90
8979;DHT22;4524;51.364;5.448;2023-07-13T03:59:32;16.70;99.90
8979;DHT22;4524;51.364;5.448;2023-07-13T04:02:00;16.80;99.90
8979;DHT22;4524;51.364;5.448;2023-07-13T04:04:34;17.00;99.90
8979;DHT22;4524;51.364;5.448;2023-07-13T04:07:03;17.30;99.90
8979;DHT22;4524;51.364;5.448;2023-07-13T04:09:31;17.30;99.90
8979;DHT22;4524;51.364;5.448;2023-07-13T04:11:59;17.40;99.90
8979;DHT22;4524;51.364;5.448;2023-07-13T04:14:27;17.40;99.60
8979;DHT22;4524;51.364;5.448;2023-07-13T04:16:56;17.30;99.80
8979;DHT22;4524;51.364;5.448;2023-07-13T04:19:24;17.40;99.80
8979;DHT22;4524;51.364;5.448;2023-07-13T04:21:54;17.60;99.80
8979;DHT22;4524;51.364;5.448;2023-07-13T04:24:22;17.60;99.60
8979;DHT22;4524;51.364;5.448;2023-07-13T04:26:51;17.60;99.50
8979;DHT22;4524;51.364;5.448;2023-07-13T04:29:19;17.60;99.70
8979;DHT22;4524;51.364;5.448;2023-07-13T04:31:47;17.90;99.40
8979;DHT22;4524;51.364;5.448;2023-07-13T04:34:15;18.00;99.30
8979;DHT22;4524;51.364;5.448;2023-07-13T04:36:43;18.00;99.10
8979;DHT22;4524;51.364;5.448;2023-07-13T04:39:13;18.00;99.30
8979;DHT22;4524;51.364;5.448;2023-07-13T04:41:41;18.10;99.10
8979;DHT22;4524;51.364;5.448;2023-07-13T04:44:10;17.80;99.40
8979;DHT22;4524;51.364;5.448;2023-07-13T04:46:38;17.90;99.30
8979;DHT22;4524;51.364;5.448;2023-07-13T04:49:06;17.90;99.40
8979;DHT22;4524;51.364;5.448;2023-07-13T04:51:35;17.80;99.70
8979;DHT22;4524;51.364;5.448;2023-07-13T04:54:04;17.70;99.70
8979;DHT22;4524;51.364;5.448;2023-07-13T04:56:36;17.50;99.90
8979;DHT22;4524;51.364;5.448;2023-07-13T04:59:04;17.60;99.90
8979;DHT22;4524;51.364;5.448;2023-07-13T05:01:32;17.70;99.90
8979;DHT22;4524;51.364;5.448;2023-07-13T05:04:01;18.20;99.50
8979;DHT22;4524;51.364;5.448;2023-07-13T05:06:29;18.30;99.40
8979;DHT22;4524;51.364;5.448;2023-07-13T05:08:58;18.60;99.20
8979;DHT22;4524;51.364;5.448;2023-07-13T05:11:26;18.40;99.30
8979;DHT22;4524;51.364;5.448;2023-07-13T05:13:56;18.50;99.40
8979;DHT22;4524;51.364;5.448;2023-07-13T05:16:24;18.60;99.10
8979;DHT22;4524;51.364;5.448;2023-07-13T05:18:52;18.80;98.70
8979;DHT22;4524;51.364;5.448;2023-07-13T05:21:21;18.90;98.60
8979;DHT22;4524;51.364;5.448;2023-07-13T05:23:49;19.00;98.50
8979;DHT22;4524;51.364;5.448;2023-07-13T05:26:17;18.90;98.40
8979;DHT22;4524;51.364;5.448;2023-07-13T05:28:47;18.90;98.50
8979;DHT22;4524;51.364;5.448;2023-07-13T05:31:17;18.80;98.50
8979;DHT22;4524;51.364;5.448;2023-07-13T05:33:45;18.90;98.40
8979;DHT22;4524;51.364;5.448;2023-07-13T05:36:13;18.80;98.60
8979;DHT22;4524;51.364;5.448;2023-07-13T05:38:42;18.80;98.40
8979;DHT22;4524;51.364;5.448;2023-07-13T05:41:11;18.90;98.40
8979;DHT22;4524;51.364;5.448;2023-07-13T05:43:40;18.60;98.50
8979;DHT22;4524;51.364;5.448;2023-07-13T05:46:08;18.80;98.70
8979;DHT22;4524;51.364;5.448;2023-07-13T05:48:38;18.80;98.60
8979;DHT22;4524;51.364;5.448;2023-07-13T05:51:07;19.00;98.30
8979;DHT22;4524;51.364;5.448;2023-07-13T05:53:35;19.00;98.20
8979;DHT22;4524;51.364;5.448;2023-07-13T05:56:04;19.10;98.10
8979;DHT22;4524;51.364;5.448;2023-07-13T05:58:32;19.00;98.20
8979;DHT22;4524;51.364;5.448;2023-07-13T06:01:02;19.10;98.10
8979;DHT22;4524;51.364;5.448;2023-07-13T06:03:33;18.80;98.50
8979;DHT22;4524;51.364;5.448;2023-07-13T06:06:02;18.70;98.50
8979;DHT22;4524;51.364;5.448;2023-07-13T06:08:32;18.80;98.50
8979;DHT22;4524;51.364;5.448;2023-07-13T06:11:04;18.90;98.50
8979;DHT22;4524;51.364;5.448;2023-07-13T06:13:33;19.00;98.30
8979;DHT22;4524;51.364;5.448;2023-07-13T06:16:02;19.20;98.10
8979;DHT22;4524;51.364;5.448;2023-07-13T06:18:32;19.00;98.20
8979;DHT22;4524;51.364;5.448;2023-07-13T06:21:06;18.90;98.30
8979;DHT22;4524;51.364;5.448;2023-07-13T06:23:35;19.00;98.20
8979;DHT22;4524;51.364;5.448;2023-07-13T06:26:03;18.90;98.50
8979;DHT22;4524;51.364;5.448;2023-07-13T06:28:32;18.80;98.40
8979;DHT22;4524;51.364;5.448;2023-07-13T06:31:01;18.80;98.50
8979;DHT22;4524;51.364;5.448;2023-07-13T06:33:29;19.10;98.40
8979;DHT22;4524;51.364;5.448;2023-07-13T06:35:58;19.20;98.30
8979;DHT22;4524;51.364;5.448;2023-07-13T06:38:27;19.40;98.10
8979;DHT22;4524;51.364;5.448;2023-07-13T06:40:55;19.50;98.00
8979;DHT22;4524;51.364;5.448;2023-07-13T06:43:24;19.40;98.00
8979;DHT22;4524;51.364;5.448;2023-07-13T06:45:55;19.50;97.80
8979;DHT22;4524;51.364;5.448;2023-07-13T06:48:23;19.50;97.70
8979;DHT22;4524;51.364;5.448;2023-07-13T06:50:52;19.60;97.60
8979;DHT22;4524;51.364;5.448;2023-07-13T06:53:20;19.30;98.00
8979;DHT22;4524;51.364;5.448;2023-07-13T06:55:50;19.40;97.80
8979;DHT22;4524;51.364;5.448;2023-07-13T06:58:20;19.50;97.70
8979;DHT22;4524;51.364;5.448;2023-07-13T07:00:50;19.50;97.50
8979;DHT22;4524;51.364;5.448;2023-07-13T07:03:19;19.60;97.40
8979;DHT22;4524;51.364;5.448;2023-07-13T07:05:47;19.50;97.70
8979;DHT22;4524;51.364;5.448;2023-07-13T07:08:15;19.50;97.80
8979;DHT22;4524;51.364;5.448;2023-07-13T07:10:44;19.40;97.90
8979;DHT22;4524;51.364;5.448;2023-07-13T07:13:13;19.40;97.70
8979;DHT22;4524;51.364;5.448;2023-07-13T07:15:42;19.30;97.80
8979;DHT22;4524;51.364;5.448;2023-07-13T07:18:10;19.10;98.00
8979;DHT22;4524;51.364;5.448;2023-07-13T07:20:38;19.20;98.10
8979;DHT22;4524;51.364;5.448;2023-07-13T07:23:07;19.40;98.00
8979;DHT22;4524;51.364;5.448;2023-07-13T07:25:55;19.50;97.80
8979;DHT22;4524;51.364;5.448;2023-07-13T07:28:25;19.70;97.50
8979;DHT22;4524;51.364;5.448;2023-07-13T07:31:10;19.90;97.40
8979;DHT22;4524;51.364;5.448;2023-07-13T07:33:41;20.00;97.50
8979;DHT22;4524;51.364;5.448;2023-07-13T07:36:10;20.00;97.40
8979;DHT22;4524;51.364;5.448;2023-07-13T07:38:41;20.20;97.30
8979;DHT22;4524;51.364;5.448;2023-07-13T07:41:10;20.10;97.30
8979;DHT22;4524;51.364;5.448;2023-07-13T07:43:42;20.00;97.10
8979;DHT22;4524;51.364;5.448;2023-07-13T07:46:11;20.10;97.10
8979;DHT22;4524;51.364;5.448;2023-07-13T07:48:39;20.00;96.90
8979;DHT22;4524;51.364;5.448;2023-07-13T07:51:08;20.00;97.10
8979;DHT22;4524;51.364;5.448;2023-07-13T07:53:36;19.90;97.20
8979;DHT22;4524;51.364;5.448;2023-07-13T07:56:04;19.90;96.90
8979;DHT22;4524;51.364;5.448;2023-07-13T07:58:54;19.70;97.30
8979;DHT22;4524;51.364;5.448;2023-07-13T08:01:25;19.90;97.30
8979;DHT22;4524;51.364;5.448;2023-07-13T08:03:57;19.70;97.50
8979;DHT22;4524;51.364;5.448;2023-07-13T08:06:28;19.90;97.40
8979;DHT22;4524;51.364;5.448;2023-07-13T08:09:11;19.90;97.40
8979;DHT22;4524;51.364;5.448;2023-07-13T08:11:39;20.00;97.20
8979;DHT22;4524;51.364;5.448;2023-07-13T08:14:12;19.90;97.10
8979;DHT22;4524;51.364;5.448;2023-07-13T08:16:41;20.10;96.90
8979;DHT22;4524;51.364;5.448;2023-07-13T08:19:09;20.20;96.90
8979;DHT22;4524;51.364;5.448;2023-07-13T08:21:38;20.30;96.80
8979;DHT22;4524;51.364;5.448;2023-07-13T08:24:06;20.20;96.80
8979;DHT22;4524;51.364;5.448;2023-07-13T08:26:34;20.40;97.00
8979;DHT22;4524;51.364;5.448;2023-07-13T08:29:03;20.50;96.50
8979;DHT22;4524;51.364;5.448;2023-07-13T08:31:33;20.40;96.40
8979;DHT22;4524;51.364;5.448;2023-07-13T08:34:01;20.40;96.70
8979;DHT22;4524;51.364;5.448;2023-07-13T08:36:48;20.80;96.40
8979;DHT22;4524;51.364;5.448;2023-07-13T08:39:17;21.10;96.10
8979;DHT22;4524;51.364;5.448;2023-07-13T08:41:46;20.90;96.00
8979;DHT22;4524;51.364;5.448;2023-07-13T08:44:22;20.90;95.80
8979;DHT22;4524;51.364;5.448;2023-07-13T08:46:56;21.00;95.90
8979;DHT22;4524;51.364;5.448;2023-07-13T08:49:27;21.00;95.50
8979;DHT22;4524;51.364;5.448;2023-07-13T08:52:16;21.00;95.70
8979;DHT22;4524;51.364;5.448;2023-07-13T08:54:49;21.10;95.70
8979;DHT22;4524;51.364;5.448;2023-07-13T08:57:21;21.30;95.60
8979;DHT22;4524;51.364;5.448;2023-07-13T08:59:50;21.40;95.30
8979;DHT22;4524;51.364;5.448;2023-07-13T09:02:41;21.40;95.20
8979;DHT22;4524;51.364;5.448;2023-07-13T09:05:13;21.40;95.40
8979;DHT22;4524;51.364;5.448;2023-07-13T09:07:55;21.40;95.20
8979;DHT22;4524;51.364;5.448;2023-07-13T09:10:27;21.50;95.00
8979;DHT22;4524;51.364;5.448;2023-07-13T09:13:07;21.70;94.90
8979;DHT22;4524;51.364;5.448;2023-07-13T09:15:44;21.60;95.00
8979;DHT22;4524;51.364;5.448;2023-07-13T09:18:19;21.60;94.70
8979;DHT22;4524;51.364;5.448;2023-07-13T09:20:52;21.70;94.80
8979;DHT22;4524;51.364;5.448;2023-07-13T09:23:23;21.40;94.90
8979;DHT22;4524;51.364;5.448;2023-07-13T09:25:54;21.20;94.90
8979;DHT22;4524;51.364;5.448;2023-07-13T09:28:29;21.00;94.90
8979;DHT22;4524;51.364;5.448;2023-07-13T09:31:03;21.10;95.00
8979;DHT22;4524;51.364;5.448;2023-07-13T09:33:33;21.10;94.80
8979;DHT22;4524;51.364;5.448;2023-07-13T09:36:17;21.20;94.70
8979;DHT22;4524;51.364;5.448;2023-07-13T09:38:47;21.30;94.60
8979;DHT22;4524;51.364;5.448;2023-07-13T09:41:21;21.20;94.70
8979;DHT22;4524;51.364;5.448;2023-07-13T09:44:01;21.10;95.10
8979;DHT22;4524;51.364;5.448;2023-07-13T09:46:30;21.40;94.50
8979;DHT22;4524;51.364;5.448;2023-07-13T09:48:59;21.60;94.30
8979;DHT22;4524;51.364;5.448;2023-07-13T09:51:27;21.80;94.20
8979;DHT22;4524;51.364;5.448;2023-07-13T09:53:56;22.10;96.50
8979;DHT22;4524;51.364;5.448;2023-07-13T09:56:27;22.00;93.80
8979;DHT22;4524;51.364;5.448;2023-07-13T09:58:57;22.10;93.70
8979;DHT22;4524;51.364;5.448;2023-07-13T10:01:33;22.00;93.50
8979;DHT22;4524;51.364;5.448;2023-07-13T10:04:11;21.80;93.50
8979;DHT22;4524;51.364;5.448;2023-07-13T10:06:40;21.90;93.40
8979;DHT22;4524;51.364;5.448;2023-07-13T10:09:10;21.90;93.50
8979;DHT22;4524;51.364;5.448;2023-07-13T10:11:40;21.90;92.70
8979;DHT22;4524;51.364;5.448;2023-07-13T10:14:13;22.10;93.20
8979;DHT22;4524;51.364;5.448;2023-07-13T10:16:43;22.10;92.50
8979;DHT22;4524;51.364;5.448;2023-07-13T10:19:16;22.10;92.50
8979;DHT22;4524;51.364;5.448;2023-07-13T10:21:52;22.40;92.80
8979;DHT22;4524;51.364;5.448;2023-07-13T10:24:23;22.60;92.50
8979;DHT22;4524;51.364;5.448;2023-07-13T10:26:56;22.70;92.10
8979;DHT22;4524;51.364;5.448;2023-07-13T10:29:27;23.00;91.90
8979;DHT22;4524;51.364;5.448;2023-07-13T10:31:57;23.10;91.40
8979;DHT22;4524;51.364;5.448;2023-07-13T10:34:26;23.10;91.40
8979;DHT22;4524;51.364;5.448;2023-07-13T10:36:55;23.60;91.70
8979;DHT22;4524;51.364;5.448;2023-07-13T10:39:26;23.90;91.10
8979;DHT22;4524;51.364;5.448;2023-07-13T10:41:55;24.00;90.80
8979;DHT22;4524;51.364;5.448;2023-07-13T10:44:27;23.70;90.20
8979;DHT22;4524;51.364;5.448;2023-07-13T10:46:59;23.10;91.20
8979;DHT22;4524;51.364;5.448;2023-07-13T10:49:31;22.50;93.40
8979;DHT22;4524;51.364;5.448;2023-07-13T10:51:59;21.90;93.90
8979;DHT22;4524;51.364;5.448;2023-07-13T10:54:30;21.70;95.40
8979;DHT22;4524;51.364;5.448;2023-07-13T10:57:16;21.60;95.50
8979;DHT22;4524;51.364;5.448;2023-07-13T10:59:47;21.90;96.30
8979;DHT22;4524;51.364;5.448;2023-07-13T11:02:24;22.10;98.40
8979;DHT22;4524;51.364;5.448;2023-07-13T11:04:56;22.40;98.20
8979;DHT22;4524;51.364;5.448;2023-07-13T11:07:27;22.70;98.00
8979;DHT22;4524;51.364;5.448;2023-07-13T11:09:57;23.00;97.50
8979;DHT22;4524;51.364;5.448;2023-07-13T11:12:29;23.10;97.80
8979;DHT22;4524;51.364;5.448;2023-07-13T11:15:30;23.20;96.40
8979;DHT22;4524;51.364;5.448;2023-07-13T11:18:02;23.30;94.40
8979;DHT22;4524;51.364;5.448;2023-07-13T11:20:38;23.50;93.80
8979;DHT22;4524;51.364;5.448;2023-07-13T11:23:28;23.50;92.60
8979;DHT22;4524;51.364;5.448;2023-07-13T11:25:57;23.60;92.40
8979;DHT22;4524;51.364;5.448;2023-07-13T11:28:31;23.90;92.40
8979;DHT22;4524;51.364;5.448;2023-07-13T11:31:12;23.60;91.60
8979;DHT22;4524;51.364;5.448;2023-07-13T11:33:57;23.30;91.50
8979;DHT22;4524;51.364;5.448;2023-07-13T11:36:32;23.00;91.80
8979;DHT22;4524;51.364;5.448;2023-07-13T11:39:11;22.80;91.30
8979;DHT22;4524;51.364;5.448;2023-07-13T11:41:44;22.40;90.70
8979;DHT22;4524;51.364;5.448;2023-07-13T11:44:15;22.60;91.30
8979;DHT22;4524;51.364;5.448;2023-07-13T11:46:47;22.90;91.60
8979;DHT22;4524;51.364;5.448;2023-07-13T11:49:42;22.90;90.50
8979;DHT22;4524;51.364;5.448;2023-07-13T11:52:16;23.10;91.00
8979;DHT22;4524;51.364;5.448;2023-07-13T11:54:48;23.00;91.20
8979;DHT22;4524;51.364;5.448;2023-07-13T11:57:24;22.90;90.50
8979;DHT22;4524;51.364;5.448;2023-07-13T11:59:55;22.90;90.70
8979;DHT22;4524;51.364;5.448;2023-07-13T12:02:28;23.10;90.70
8979;DHT22;4524;51.364;5.448;2023-07-13T12:04:56;23.30;90.40
8979;DHT22;4524;51.364;5.448;2023-07-13T12:07:28;23.40;89.90
8979;DHT22;4524;51.364;5.448;2023-07-13T12:10:00;23.50;87.70
8979;DHT22;4524;51.364;5.448;2023-07-13T12:12:29;23.50;88.50
8979;DHT22;4524;51.364;5.448;2023-07-13T12:14:57;23.40;88.00
8979;DHT22;4524;51.364;5.448;2023-07-13T12:17:26;23.40;89.30
8979;DHT22;4524;51.364;5.448;2023-07-13T12:19:54;23.20;87.30
8979;DHT22;4524;51.364;5.448;2023-07-13T12:22:46;23.20;87.80
8979;DHT22;4524;51.364;5.448;2023-07-13T12:25:15;23.20;87.00
8979;DHT22;4524;51.364;5.448;2023-07-13T12:27:47;23.10;87.00
8979;DHT22;4524;51.364;5.448;2023-07-13T12:30:35;23.10;87.50
8979;DHT22;4524;51.364;5.448;2023-07-13T12:33:07;23.00;86.80
8979;DHT22;4524;51.364;5.448;2023-07-13T12:35:41;22.90;86.70
8979;DHT22;4524;51.364;5.448;2023-07-13T12:38:12;23.00;87.90
8979;DHT22;4524;51.364;5.448;2023-07-13T12:40:41;23.10;87.60
8979;DHT22;4524;51.364;5.448;2023-07-13T12:43:12;23.00;87.90
8979;DHT22;4524;51.364;5.448;2023-07-13T12:45:55;23.10;89.10
8979;DHT22;4524;51.364;5.448;2023-07-13T12:48:24;22.90;89.90
8979;DHT22;4524;51.364;5.448;2023-07-13T12:51:12;22.80;90.20
8979;DHT22;4524;51.364;5.448;2023-07-13T12:53:47;22.40;91.20
8979;DHT22;4524;51.364;5.448;2023-07-13T12:56:19;22.00;91.60
8979;DHT22;4524;51.364;5.448;2023-07-13T12:59:16;21.70;93.40
8979;DHT22;4524;51.364;5.448;2023-07-13T13:01:46;21.20;95.20
8979;DHT22;4524;51.364;5.448;2023-07-13T13:04:16;20.60;94.50
8979;DHT22;4524;51.364;5.448;2023-07-13T13:06:49;20.40;96.00
8979;DHT22;4524;51.364;5.448;2023-07-13T13:09:19;20.20;96.20
8979;DHT22;4524;51.364;5.448;2023-07-13T13:11:48;20.30;96.80
8979;DHT22;4524;51.364;5.448;2023-07-13T13:14:17;20.30;96.70
8979;DHT22;4524;51.364;5.448;2023-07-13T13:16:47;20.20;97.50
8979;DHT22;4524;51.364;5.448;2023-07-13T13:19:19;20.30;98.10
8979;DHT22;4524;51.364;5.448;2023-07-13T13:21:50;20.30;98.20
8979;DHT22;4524;51.364;5.448;2023-07-13T13:24:24;20.30;97.40
8979;DHT22;4524;51.364;5.448;2023-07-13T13:26:53;20.30;97.80
8979;DHT22;4524;51.364;5.448;2023-07-13T13:29:24;20.40;98.40
8979;DHT22;4524;51.364;5.448;2023-07-13T13:31:54;20.40;97.90
8979;DHT22;4524;51.364;5.448;2023-07-13T13:34:24;20.80;99.90
8979;DHT22;4524;51.364;5.448;2023-07-13T13:36:53;20.90;97.60
8979;DHT22;4524;51.364;5.448;2023-07-13T13:39:33;21.10;97.80
8979;DHT22;4524;51.364;5.448;2023-07-13T13:42:02;21.10;97.80
8979;DHT22;4524;51.364;5.448;2023-07-13T13:44:31;21.30;98.40
8979;DHT22;4524;51.364;5.448;2023-07-13T13:47:02;21.30;97.80
8979;DHT22;4524;51.364;5.448;2023-07-13T13:49:30;21.20;97.60
8979;DHT22;4524;51.364;5.448;2023-07-13T13:52:02;21.30;98.20
8979;DHT22;4524;51.364;5.448;2023-07-13T13:54:32;21.30;98.00
8979;DHT22;4524;51.364;5.448;2023-07-13T13:57:00;21.20;98.20
8979;DHT22;4524;51.364;5.448;2023-07-13T13:59:28;21.20;98.90
8979;DHT22;4524;51.364;5.448;2023-07-13T14:01:59;21.00;97.10
8979;DHT22;4524;51.364;5.448;2023-07-13T14:04:27;20.80;97.10
8979;DHT22;4524;51.364;5.448;2023-07-13T14:06:56;20.90;97.60
8979;DHT22;4524;51.364;5.448;2023-07-13T14:09:24;20.80;97.40
8979;DHT22;4524;51.364;5.448;2023-07-13T14:11:53;20.70;97.60
8979;DHT22;4524;51.364;5.448;2023-07-13T14:14:25;20.50;97.40
8979;DHT22;4524;51.364;5.448;2023-07-13T14:16:55;20.40;97.30
8979;DHT22;4524;51.364;5.448;2023-07-13T14:19:24;20.50;97.50
8979;DHT22;4524;51.364;5.448;2023-07-13T14:21:53;20.40;97.50
8979;DHT22;4524;51.364;5.448;2023-07-13T14:24:40;20.60;98.00
8979;DHT22;4524;51.364;5.448;2023-07-13T14:27:10;20.60;97.60
8979;DHT22;4524;51.364;5.448;2023-07-13T14:29:39;20.80;97.60
8979;DHT22;4524;51.364;5.448;2023-07-13T14:32:10;20.80;97.30
8979;DHT22;4524;51.364;5.448;2023-07-13T14:34:38;20.80;99.90
8979;DHT22;4524;51.364;5.448;2023-07-13T14:37:13;20.90;97.30
8979;DHT22;4524;51.364;5.448;2023-07-13T14:39:44;20.80;97.30
8979;DHT22;4524;51.364;5.448;2023-07-13T14:42:14;20.90;97.60
8979;DHT22;4524;51.364;5.448;2023-07-13T14:44:42;21.00;97.40
8979;DHT22;4524;51.364;5.448;2023-07-13T14:47:10;21.10;97.60
8979;DHT22;4524;51.364;5.448;2023-07-13T14:49:41;21.10;97.50
8979;DHT22;4524;51.364;5.448;2023-07-13T14:52:29;21.00;97.30
8979;DHT22;4524;51.364;5.448;2023-07-13T14:54:57;21.10;96.90
8979;DHT22;4524;51.364;5.448;2023-07-13T14:57:27;21.20;96.80
8979;DHT22;4524;51.364;5.448;2023-07-13T14:59:55;21.30;96.70
8979;DHT22;4524;51.364;5.448;2023-07-13T15:02:33;21.40;96.40
8979;DHT22;4524;51.364;5.448;2023-07-13T15:05:05;21.30;96.60
8979;DHT22;4524;51.364;5.448;2023-07-13T15:07:37;21.60;96.50
8979;DHT22;4524;51.364;5.448;2023-07-13T15:10:13;21.60;99.20
8979;DHT22;4524;51.364;5.448;2023-07-13T15:12:43;21.60;96.60
8979;DHT22;4524;51.364;5.448;2023-07-13T15:15:12;21.70;96.40
8979;DHT22;4524;51.364;5.448;2023-07-13T15:17:42;21.90;96.10
8979;DHT22;4524;51.364;5.448;2023-07-13T15:20:19;22.10;95.80
8979;DHT22;4524;51.364;5.448;2023-07-13T15:22:48;22.00;95.40
8979;DHT22;4524;51.364;5.448;2023-07-13T15:25:18;22.00;95.70
8979;DHT22;4524;51.364;5.448;2023-07-13T15:27:48;22.10;95.30
8979;DHT22;4524;51.364;5.448;2023-07-13T15:30:16;22.10;95.80
8979;DHT22;4524;51.364;5.448;2023-07-13T15:32:45;22.00;95.30
8979;DHT22;4524;51.364;5.448;2023-07-13T15:35:15;21.80;95.00
8979;DHT22;4524;51.364;5.448;2023-07-13T15:37:44;21.70;95.10
8979;DHT22;4524;51.364;5.448;2023-07-13T15:40:14;21.50;95.00
8979;DHT22;4524;51.364;5.448;2023-07-13T15:43:08;21.50;95.30
8979;DHT22;4524;51.364;5.448;2023-07-13T15:45:38;21.30;95.20
8979;DHT22;4524;51.364;5.448;2023-07-13T15:48:12;21.30;95.50
8979;DHT22;4524;51.364;5.448;2023-07-13T15:50:43;21.30;95.60
8979;DHT22;4524;51.364;5.448;2023-07-13T15:53:12;21.30;95.40
8979;DHT22;4524;51.364;5.448;2023-07-13T15:55:40;21.30;95.20
8979;DHT22;4524;51.364;5.448;2023-07-13T15:58:12;21.20;95.10
8979;DHT22;4524;51.364;5.448;2023-07-13T16:00:42;21.30;95.10
8979;DHT22;4524;51.364;5.448;2023-07-13T16:03:11;21.20;95.50
8979;DHT22;4524;51.364;5.448;2023-07-13T16:05:39;21.20;95.00
8979;DHT22;4524;51.364;5.448;2023-07-13T16:08:19;21.20;95.00
8979;DHT22;4524;51.364;5.448;2023-07-13T16:10:48;21.20;95.20
8979;DHT22;4524;51.364;5.448;2023-07-13T16:13:20;21.10;95.00
8979;DHT22;4524;51.364;5.448;2023-07-13T16:15:48;21.00;94.90
8979;DHT22;4524;51.364;5.448;2023-07-13T16:18:16;20.90;95.10
8979;DHT22;4524;51.364;5.448;2023-07-13T16:20:46;20.80;97.80
8979;DHT22;4524;51.364;5.448;2023-07-13T16:23:16;20.80;95.50
8979;DHT22;4524;51.364;5.448;2023-07-13T16:25:45;20.70;95.30
8979;DHT22;4524;51.364;5.448;2023-07-13T16:28:15;20.80;95.20